sensor_id;sensor_type;location;lat;lon;timestamp;P1;durP1;ratioP1;P2;durP2;ratioP2
10216;SDS011;5152;59.674;16.838;2023-10-31T00:02:07;7.00;;;5.90;;
10216;SDS011;5152;59.674;16.838;2023-10-31T00:04:34;5.53;;;3.90;;
10216;SDS011;5152;59.674;16.838;2023-10-31T00:07:02;4.70;;;4.20;;
10216;SDS011;5152;59.674;16.838;2023-10-31T00:09:29;2.80;;;1.50;;
10216;SDS011;5152;59.674;16.838;2023-10-31T00:11:56;2.03;;;1.53;;
10216;SDS011;5152;59.674;16.838;2023-10-31T00:14:23;2.73;;;2.10;;
10216;SDS011;5152;59.674;16.838;2023-10-31T00:16:50;1.40;;;1.30;;
10216;SDS011;5152;59.674;16.838;2023-10-31T00:19:18;1.40;;;1.30;;
10216;SDS011;5152;59.674;16.838;2023-10-31T00:21:45;1.40;;;1.00;;
10216;SDS011;5152;59.674;16.838;2023-10-31T00:24:13;0.80;;;0.80;;
10216;SDS011;5152;59.674;16.838;2023-10-31T00:26:40;2.83;;;0.60;;
10216;SDS011;5152;59.674;16.838;2023-10-31T00:29:07;0.70;;;0.63;;
10216;SDS011;5152;59.674;16.838;2023-10-31T00:31:34;0.93;;;0.93;;
10216;SDS011;5152;59.674;16.838;2023-10-31T00:34:01;0.70;;;0.70;;
10216;SDS011;5152;59.674;16.838;2023-10-31T00:36:28;0.70;;;0.70;;
10216;SDS011;5152;59.674;16.838;2023-10-31T00:38:55;0.70;;;0.70;;
10216;SDS011;5152;59.674;16.838;2023-10-31T00:41:23;0.70;;;0.70;;
10216;SDS011;5152;59.674;16.838;2023-10-31T00:43:50;0.20;;;0.20;;
10216;SDS011;5152;59.674;16.838;2023-10-31T00:46:16;0.80;;;0.30;;
10216;SDS011;5152;59.674;16.838;2023-10-31T00:48:43;0.50;;;0.50;;
10216;SDS011;5152;59.674;16.838;2023-10-31T00:51:10;0.40;;;0.40;;
10216;SDS011;5152;59.674;16.838;2023-10-31T00:53:37;0.60;;;0.30;;
10216;SDS011;5152;59.674;16.838;2023-10-31T00:56:04;0.40;;;0.40;;
10216;SDS011;5152;59.674;16.838;2023-10-31T00:58:33;0.80;;;0.80;;
10216;SDS011;5152;59.674;16.838;2023-10-31T01:01:00;0.37;;;0.37;;
10216;SDS011;5152;59.674;16.838;2023-10-31T01:03:27;0.50;;;0.50;;
10216;SDS011;5152;59.674;16.838;2023-10-31T01:05:55;0.67;;;0.67;;
10216;SDS011;5152;59.674;16.838;2023-10-31T01:08:22;0.90;;;0.30;;
10216;SDS011;5152;59.674;16.838;2023-10-31T01:10:49;1.20;;;0.20;;
10216;SDS011;5152;59.674;16.838;2023-10-31T01:13:15;0.20;;;0.20;;
10216;SDS011;5152;59.674;16.838;2023-10-31T01:15:44;0.60;;;0.60;;
10216;SDS011;5152;59.674;16.838;2023-10-31T01:18:11;1.97;;;0.30;;
10216;SDS011;5152;59.674;16.838;2023-10-31T01:20:37;0.43;;;0.40;;
10216;SDS011;5152;59.674;16.838;2023-10-31T01:23:04;0.17;;;0.13;;
10216;SDS011;5152;59.674;16.838;2023-10-31T01:25:31;0.20;;;0.20;;
10216;SDS011;5152;59.674;16.838;2023-10-31T01:27:58;0.90;;;0.60;;
10216;SDS011;5152;59.674;16.838;2023-10-31T01:30:25;0.40;;;0.30;;
10216;SDS011;5152;59.674;16.838;2023-10-31T01:32:53;0.57;;;0.57;;
10216;SDS011;5152;59.674;16.838;2023-10-31T01:35:20;0.60;;;0.60;;
10216;SDS011;5152;59.674;16.838;2023-10-31T01:37:47;0.70;;;0.67;;
10216;SDS011;5152;59.674;16.838;2023-10-31T01:40:13;0.40;;;0.40;;
10216;SDS011;5152;59.674;16.838;2023-10-31T01:42:40;0.40;;;0.40;;
10216;SDS011;5152;59.674;16.838;2023-10-31T01:45:07;0.50;;;0.50;;
10216;SDS011;5152;59.674;16.838;2023-10-31T01:47:34;0.63;;;0.63;;
10216;SDS011;5152;59.674;16.838;2023-10-31T01:50:03;1.20;;;0.20;;
10216;SDS011;5152;59.674;16.838;2023-10-31T01:52:32;0.70;;;0.40;;
10216;SDS011;5152;59.674;16.838;2023-10-31T01:55:01;0.23;;;0.20;;
10216;SDS011;5152;59.674;16.838;2023-10-31T01:57:28;0.73;;;0.40;;
10216;SDS011;5152;59.674;16.838;2023-10-31T01:59:55;0.10;;;0.10;;
10216;SDS011;5152;59.674;16.838;2023-10-31T02:02:22;0.20;;;0.20;;
10216;SDS011;5152;59.674;16.838;2023-10-31T02:04:49;0.53;;;0.53;;
10216;SDS011;5152;59.674;16.838;2023-10-31T02:07:17;0.47;;;0.40;;
10216;SDS011;5152;59.674;16.838;2023-10-31T02:09:44;0.20;;;0.20;;
10216;SDS011;5152;59.674;16.838;2023-10-31T02:12:16;0.20;;;0.20;;
10216;SDS011;5152;59.674;16.838;2023-10-31T02:14:57;0.30;;;0.30;;
10216;SDS011;5152;59.674;16.838;2023-10-31T02:17:24;0.40;;;0.40;;
10216;SDS011;5152;59.674;16.838;2023-10-31T02:19:50;0.57;;;0.40;;
10216;SDS011;5152;59.674;16.838;2023-10-31T02:22:19;0.43;;;0.43;;
10216;SDS011;5152;59.674;16.838;2023-10-31T02:24:46;0.10;;;0.10;;
10216;SDS011;5152;59.674;16.838;2023-10-31T02:27:12;0.10;;;0.10;;
10216;SDS011;5152;59.674;16.838;2023-10-31T02:29:39;0.37;;;0.33;;
10216;SDS011;5152;59.674;16.838;2023-10-31T02:32:06;0.20;;;0.20;;
10216;SDS011;5152;59.674;16.838;2023-10-31T02:34:33;0.47;;;0.47;;
10216;SDS011;5152;59.674;16.838;2023-10-31T02:37:00;0.10;;;0.10;;
10216;SDS011;5152;59.674;16.838;2023-10-31T02:39:28;0.50;;;0.50;;
10216;SDS011;5152;59.674;16.838;2023-10-31T02:41:55;0.70;;;0.63;;
10216;SDS011;5152;59.674;16.838;2023-10-31T02:44:23;0.73;;;0.50;;
10216;SDS011;5152;59.674;16.838;2023-10-31T02:46:49;0.40;;;0.40;;
10216;SDS011;5152;59.674;16.838;2023-10-31T02:49:16;0.17;;;0.17;;
10216;SDS011;5152;59.674;16.838;2023-10-31T02:51:43;0.33;;;0.30;;
10216;SDS011;5152;59.674;16.838;2023-10-31T02:54:10;0.10;;;0.10;;
10216;SDS011;5152;59.674;16.838;2023-10-31T02:56:38;0.10;;;0.10;;
10216;SDS011;5152;59.674;16.838;2023-10-31T02:59:05;0.53;;;0.20;;
10216;SDS011;5152;59.674;16.838;2023-10-31T03:01:32;0.33;;;0.30;;
10216;SDS011;5152;59.674;16.838;2023-10-31T03:03:58;0.50;;;0.50;;
10216;SDS011;5152;59.674;16.838;2023-10-31T03:06:25;2.03;;;0.50;;
10216;SDS011;5152;59.674;16.838;2023-10-31T03:08:52;0.73;;;0.40;;
10216;SDS011;5152;59.674;16.838;2023-10-31T03:11:22;0.63;;;0.63;;
10216;SDS011;5152;59.674;16.838;2023-10-31T03:13:51;0.43;;;0.43;;
10216;SDS011;5152;59.674;16.838;2023-10-31T03:16:18;0.53;;;0.53;;
10216;SDS011;5152;59.674;16.838;2023-10-31T03:18:46;1.40;;;0.70;;
10216;SDS011;5152;59.674;16.838;2023-10-31T03:21:13;1.27;;;0.70;;
10216;SDS011;5152;59.674;16.838;2023-10-31T03:23:41;0.60;;;0.40;;
10216;SDS011;5152;59.674;16.838;2023-10-31T03:26:08;0.40;;;0.40;;
10216;SDS011;5152;59.674;16.838;2023-10-31T03:28:35;0.80;;;0.80;;
10216;SDS011;5152;59.674;16.838;2023-10-31T03:31:03;2.23;;;2.03;;
10216;SDS011;5152;59.674;16.838;2023-10-31T03:33:30;8.90;;;6.90;;
10216;SDS011;5152;59.674;16.838;2023-10-31T03:35:57;5.20;;;4.70;;
10216;SDS011;5152;59.674;16.838;2023-10-31T03:38:24;3.87;;;3.53;;
10216;SDS011;5152;59.674;16.838;2023-10-31T03:40:50;2.03;;;1.87;;
10216;SDS011;5152;59.674;16.838;2023-10-31T03:43:18;1.67;;;1.50;;
10216;SDS011;5152;59.674;16.838;2023-10-31T03:45:45;3.10;;;0.90;;
10216;SDS011;5152;59.674;16.838;2023-10-31T03:48:13;5.33;;;1.70;;
10216;SDS011;5152;59.674;16.838;2023-10-31T03:50:41;0.93;;;0.93;;
10216;SDS011;5152;59.674;16.838;2023-10-31T03:53:08;0.80;;;0.80;;
10216;SDS011;5152;59.674;16.838;2023-10-31T03:55:35;1.63;;;1.53;;
10216;SDS011;5152;59.674;16.838;2023-10-31T03:58:02;1.87;;;1.20;;
10216;SDS011;5152;59.674;16.838;2023-10-31T04:00:29;1.50;;;1.40;;
10216;SDS011;5152;59.674;16.838;2023-10-31T04:02:56;1.30;;;1.20;;
10216;SDS011;5152;59.674;16.838;2023-10-31T04:05:24;1.80;;;1.57;;
10216;SDS011;5152;59.674;16.838;2023-10-31T04:07:51;1.77;;;0.80;;
10216;SDS011;5152;59.674;16.838;2023-10-31T04:10:18;2.03;;;1.30;;
10216;SDS011;5152;59.674;16.838;2023-10-31T04:12:45;1.23;;;1.03;;
10216;SDS011;5152;59.674;16.838;2023-10-31T04:15:12;9.43;;;7.60;;
10216;SDS011;5152;59.674;16.838;2023-10-31T04:17:39;6.03;;;5.07;;
10216;SDS011;5152;59.674;16.838;2023-10-31T04:20:06;7.83;;;6.20;;
10216;SDS011;5152;59.674;16.838;2023-10-31T04:22:35;7.80;;;4.30;;
10216;SDS011;5152;59.674;16.838;2023-10-31T04:25:02;2.80;;;2.40;;
10216;SDS011;5152;59.674;16.838;2023-10-31T04:27:29;3.07;;;2.30;;
10216;SDS011;5152;59.674;16.838;2023-10-31T04:29:56;3.93;;;3.17;;
10216;SDS011;5152;59.674;16.838;2023-10-31T04:32:23;4.00;;;2.67;;
10216;SDS011;5152;59.674;16.838;2023-10-31T04:34:50;1.80;;;1.70;;
10216;SDS011;5152;59.674;16.838;2023-10-31T04:37:17;3.40;;;3.10;;
10216;SDS011;5152;59.674;16.838;2023-10-31T04:39:45;1.80;;;1.70;;
10216;SDS011;5152;59.674;16.838;2023-10-31T04:42:12;1.43;;;1.33;;
10216;SDS011;5152;59.674;16.838;2023-10-31T04:44:39;1.40;;;1.30;;
10216;SDS011;5152;59.674;16.838;2023-10-31T04:47:06;1.53;;;1.43;;
10216;SDS011;5152;59.674;16.838;2023-10-31T04:49:34;4.50;;;2.50;;
10216;SDS011;5152;59.674;16.838;2023-10-31T04:52:01;2.07;;;1.87;;
10216;SDS011;5152;59.674;16.838;2023-10-31T04:54:29;4.10;;;3.57;;
10216;SDS011;5152;59.674;16.838;2023-10-31T04:56:57;4.00;;;2.70;;
10216;SDS011;5152;59.674;16.838;2023-10-31T04:59:24;3.37;;;3.07;;
10216;SDS011;5152;59.674;16.838;2023-10-31T05:01:50;4.40;;;4.00;;
10216;SDS011;5152;59.674;16.838;2023-10-31T05:04:17;4.50;;;4.10;;
10216;SDS011;5152;59.674;16.838;2023-10-31T05:06:44;4.20;;;3.43;;
10216;SDS011;5152;59.674;16.838;2023-10-31T05:09:13;1.97;;;1.77;;
10216;SDS011;5152;59.674;16.838;2023-10-31T05:11:40;1.10;;;1.10;;
10216;SDS011;5152;59.674;16.838;2023-10-31T05:14:08;1.27;;;1.17;;
10216;SDS011;5152;59.674;16.838;2023-10-31T05:16:39;1.20;;;1.10;;
10216;SDS011;5152;59.674;16.838;2023-10-31T05:19:06;4.27;;;3.87;;
10216;SDS011;5152;59.674;16.838;2023-10-31T05:21:33;10.50;;;9.10;;
10216;SDS011;5152;59.674;16.838;2023-10-31T05:24:00;3.83;;;3.20;;
10216;SDS011;5152;59.674;16.838;2023-10-31T05:26:27;5.23;;;4.77;;
10216;SDS011;5152;59.674;16.838;2023-10-31T05:28:54;3.60;;;3.10;;
10216;SDS011;5152;59.674;16.838;2023-10-31T05:31:23;2.73;;;2.27;;
10216;SDS011;5152;59.674;16.838;2023-10-31T05:33:50;2.70;;;2.50;;
10216;SDS011;5152;59.674;16.838;2023-10-31T05:36:18;3.17;;;2.20;;
10216;SDS011;5152;59.674;16.838;2023-10-31T05:38:45;2.80;;;1.90;;
10216;SDS011;5152;59.674;16.838;2023-10-31T05:41:12;1.87;;;1.47;;
10216;SDS011;5152;59.674;16.838;2023-10-31T05:43:39;7.00;;;6.40;;
10216;SDS011;5152;59.674;16.838;2023-10-31T05:46:06;4.33;;;3.97;;
10216;SDS011;5152;59.674;16.838;2023-10-31T05:48:37;2.83;;;2.47;;
10216;SDS011;5152;59.674;16.838;2023-10-31T05:51:04;3.83;;;2.00;;
10216;SDS011;5152;59.674;16.838;2023-10-31T05:53:31;2.97;;;2.27;;
10216;SDS011;5152;59.674;16.838;2023-10-31T05:55:59;4.97;;;4.33;;
10216;SDS011;5152;59.674;16.838;2023-10-31T05:58:26;6.37;;;4.40;;
10216;SDS011;5152;59.674;16.838;2023-10-31T06:00:53;4.93;;;4.43;;
10216;SDS011;5152;59.674;16.838;2023-10-31T06:03:19;3.00;;;2.70;;
10216;SDS011;5152;59.674;16.838;2023-10-31T06:05:48;2.87;;;2.43;;
10216;SDS011;5152;59.674;16.838;2023-10-31T06:08:14;2.53;;;1.80;;
10216;SDS011;5152;59.674;16.838;2023-10-31T06:10:41;2.43;;;1.83;;
10216;SDS011;5152;59.674;16.838;2023-10-31T06:13:08;2.33;;;2.07;;
10216;SDS011;5152;59.674;16.838;2023-10-31T06:15:35;2.27;;;2.07;;
10216;SDS011;5152;59.674;16.838;2023-10-31T06:18:02;2.03;;;1.83;;
10216;SDS011;5152;59.674;16.838;2023-10-31T06:20:29;4.40;;;3.80;;
10216;SDS011;5152;59.674;16.838;2023-10-31T06:22:57;3.13;;;2.83;;
10216;SDS011;5152;59.674;16.838;2023-10-31T06:25:24;3.13;;;2.83;;
10216;SDS011;5152;59.674;16.838;2023-10-31T06:27:51;5.33;;;4.43;;
10216;SDS011;5152;59.674;16.838;2023-10-31T06:30:18;4.50;;;4.10;;
10216;SDS011;5152;59.674;16.838;2023-10-31T06:32:45;5.40;;;4.57;;
10216;SDS011;5152;59.674;16.838;2023-10-31T06:35:12;6.57;;;5.90;;
10216;SDS011;5152;59.674;16.838;2023-10-31T06:37:39;6.80;;;6.20;;
10216;SDS011;5152;59.674;16.838;2023-10-31T06:40:08;6.20;;;5.60;;
10216;SDS011;5152;59.674;16.838;2023-10-31T06:42:35;4.47;;;2.80;;
10216;SDS011;5152;59.674;16.838;2023-10-31T06:45:03;8.03;;;4.73;;
10216;SDS011;5152;59.674;16.838;2023-10-31T06:47:30;4.33;;;4.00;;
10216;SDS011;5152;59.674;16.838;2023-10-31T06:49:57;2.63;;;2.43;;
10216;SDS011;5152;59.674;16.838;2023-10-31T06:52:24;1.90;;;1.70;;
10216;SDS011;5152;59.674;16.838;2023-10-31T06:54:51;1.20;;;1.20;;
10216;SDS011;5152;59.674;16.838;2023-10-31T06:57:19;1.27;;;1.17;;
10216;SDS011;5152;59.674;16.838;2023-10-31T06:59:46;2.47;;;2.00;;
10216;SDS011;5152;59.674;16.838;2023-10-31T07:02:13;5.03;;;2.43;;
10216;SDS011;5152;59.674;16.838;2023-10-31T07:04:40;5.00;;;3.10;;
10216;SDS011;5152;59.674;16.838;2023-10-31T07:07:07;4.50;;;4.10;;
10216;SDS011;5152;59.674;16.838;2023-10-31T07:09:34;4.47;;;4.07;;
10216;SDS011;5152;59.674;16.838;2023-10-31T07:12:01;3.63;;;2.93;;
10216;SDS011;5152;59.674;16.838;2023-10-31T07:14:29;7.40;;;3.73;;
10216;SDS011;5152;59.674;16.838;2023-10-31T07:16:56;3.83;;;3.30;;
10216;SDS011;5152;59.674;16.838;2023-10-31T07:19:24;5.20;;;4.50;;
10216;SDS011;5152;59.674;16.838;2023-10-31T07:21:51;4.67;;;3.30;;
10216;SDS011;5152;59.674;16.838;2023-10-31T07:24:18;8.63;;;5.47;;
10216;SDS011;5152;59.674;16.838;2023-10-31T07:26:45;4.03;;;3.63;;
10216;SDS011;5152;59.674;16.838;2023-10-31T07:29:12;3.97;;;3.27;;
10216;SDS011;5152;59.674;16.838;2023-10-31T07:31:40;4.73;;;3.77;;
10216;SDS011;5152;59.674;16.838;2023-10-31T07:34:07;5.63;;;3.77;;
10216;SDS011;5152;59.674;16.838;2023-10-31T07:36:36;3.43;;;2.83;;
10216;SDS011;5152;59.674;16.838;2023-10-31T07:39:04;5.67;;;4.27;;
10216;SDS011;5152;59.674;16.838;2023-10-31T07:41:31;16.03;;;10.37;;
10216;SDS011;5152;59.674;16.838;2023-10-31T07:43:58;10.30;;;6.37;;
10216;SDS011;5152;59.674;16.838;2023-10-31T07:46:25;8.50;;;6.33;;
10216;SDS011;5152;59.674;16.838;2023-10-31T07:48:53;10.40;;;8.00;;
10216;SDS011;5152;59.674;16.838;2023-10-31T07:51:20;12.73;;;10.07;;
10216;SDS011;5152;59.674;16.838;2023-10-31T07:53:46;22.60;;;14.47;;
10216;SDS011;5152;59.674;16.838;2023-10-31T07:56:17;18.43;;;14.53;;
10216;SDS011;5152;59.674;16.838;2023-10-31T07:58:48;14.27;;;9.53;;
10216;SDS011;5152;59.674;16.838;2023-10-31T08:01:16;8.77;;;7.33;;
10216;SDS011;5152;59.674;16.838;2023-10-31T08:03:43;8.37;;;6.60;;
10216;SDS011;5152;59.674;16.838;2023-10-31T08:06:13;8.83;;;6.87;;
10216;SDS011;5152;59.674;16.838;2023-10-31T08:08:40;6.00;;;5.07;;
10216;SDS011;5152;59.674;16.838;2023-10-31T08:11:07;16.33;;;11.50;;
10216;SDS011;5152;59.674;16.838;2023-10-31T08:13:34;17.37;;;11.10;;
10216;SDS011;5152;59.674;16.838;2023-10-31T08:16:02;20.33;;;14.23;;
10216;SDS011;5152;59.674;16.838;2023-10-31T08:18:29;23.80;;;17.70;;
10216;SDS011;5152;59.674;16.838;2023-10-31T08:20:56;4.40;;;3.73;;
10216;SDS011;5152;59.674;16.838;2023-10-31T08:23:25;10.33;;;6.83;;
10216;SDS011;5152;59.674;16.838;2023-10-31T08:25:52;7.00;;;6.17;;
10216;SDS011;5152;59.674;16.838;2023-10-31T08:28:19;5.50;;;4.37;;
10216;SDS011;5152;59.674;16.838;2023-10-31T08:30:46;8.00;;;6.40;;
10216;SDS011;5152;59.674;16.838;2023-10-31T08:33:13;13.40;;;9.43;;
10216;SDS011;5152;59.674;16.838;2023-10-31T08:35:40;10.93;;;8.23;;
10216;SDS011;5152;59.674;16.838;2023-10-31T08:38:08;26.87;;;14.70;;
10216;SDS011;5152;59.674;16.838;2023-10-31T08:40:36;19.83;;;11.87;;
10216;SDS011;5152;59.674;16.838;2023-10-31T08:43:03;23.77;;;16.07;;
10216;SDS011;5152;59.674;16.838;2023-10-31T08:45:31;19.17;;;10.20;;
10216;SDS011;5152;59.674;16.838;2023-10-31T08:47:59;13.17;;;8.27;;
10216;SDS011;5152;59.674;16.838;2023-10-31T08:50:25;17.20;;;12.30;;
10216;SDS011;5152;59.674;16.838;2023-10-31T08:52:53;14.67;;;11.93;;
10216;SDS011;5152;59.674;16.838;2023-10-31T08:55:20;9.50;;;6.70;;
10216;SDS011;5152;59.674;16.838;2023-10-31T08:57:48;5.73;;;4.50;;
10216;SDS011;5152;59.674;16.838;2023-10-31T09:00:17;7.13;;;5.20;;
10216;SDS011;5152;59.674;16.838;2023-10-31T09:02:44;9.20;;;5.77;;
10216;SDS011;5152;59.674;16.838;2023-10-31T09:05:11;7.97;;;6.27;;
10216;SDS011;5152;59.674;16.838;2023-10-31T09:07:38;5.30;;;4.20;;
10216;SDS011;5152;59.674;16.838;2023-10-31T09:10:06;9.73;;;6.73;;
10216;SDS011;5152;59.674;16.838;2023-10-31T09:12:33;7.47;;;5.07;;
10216;SDS011;5152;59.674;16.838;2023-10-31T09:15:02;6.90;;;6.07;;
10216;SDS011;5152;59.674;16.838;2023-10-31T09:17:29;14.50;;;10.63;;
10216;SDS011;5152;59.674;16.838;2023-10-31T09:19:56;13.10;;;8.57;;
10216;SDS011;5152;59.674;16.838;2023-10-31T09:22:24;12.20;;;5.47;;
10216;SDS011;5152;59.674;16.838;2023-10-31T09:24:51;4.43;;;3.40;;
10216;SDS011;5152;59.674;16.838;2023-10-31T09:27:18;6.50;;;4.90;;
10216;SDS011;5152;59.674;16.838;2023-10-31T09:29:44;11.00;;;8.83;;
10216;SDS011;5152;59.674;16.838;2023-10-31T09:32:14;8.63;;;6.27;;
10216;SDS011;5152;59.674;16.838;2023-10-31T09:34:41;9.50;;;6.87;;
10216;SDS011;5152;59.674;16.838;2023-10-31T09:37:08;5.93;;;4.87;;
10216;SDS011;5152;59.674;16.838;2023-10-31T09:39:35;6.20;;;4.03;;
10216;SDS011;5152;59.674;16.838;2023-10-31T09:42:02;3.90;;;3.17;;
10216;SDS011;5152;59.674;16.838;2023-10-31T09:44:29;4.70;;;3.90;;
10216;SDS011;5152;59.674;16.838;2023-10-31T09:46:56;5.03;;;3.83;;
10216;SDS011;5152;59.674;16.838;2023-10-31T09:49:24;6.27;;;5.67;;
10216;SDS011;5152;59.674;16.838;2023-10-31T09:51:51;6.20;;;5.13;;
10216;SDS011;5152;59.674;16.838;2023-10-31T09:54:18;6.27;;;3.17;;
10216;SDS011;5152;59.674;16.838;2023-10-31T09:56:45;4.67;;;3.23;;
10216;SDS011;5152;59.674;16.838;2023-10-31T09:59:13;5.33;;;3.77;;
10216;SDS011;5152;59.674;16.838;2023-10-31T10:01:40;12.47;;;8.20;;
10216;SDS011;5152;59.674;16.838;2023-10-31T10:04:08;9.73;;;8.60;;
10216;SDS011;5152;59.674;16.838;2023-10-31T10:06:38;8.23;;;5.70;;
10216;SDS011;5152;59.674;16.838;2023-10-31T10:09:06;5.03;;;4.53;;
10216;SDS011;5152;59.674;16.838;2023-10-31T10:11:33;4.87;;;4.10;;
10216;SDS011;5152;59.674;16.838;2023-10-31T10:14:00;4.17;;;3.50;;
10216;SDS011;5152;59.674;16.838;2023-10-31T10:16:28;4.33;;;3.40;;
10216;SDS011;5152;59.674;16.838;2023-10-31T10:18:56;3.57;;;2.60;;
10216;SDS011;5152;59.674;16.838;2023-10-31T10:21:23;9.10;;;8.10;;
10216;SDS011;5152;59.674;16.838;2023-10-31T10:23:52;20.33;;;10.10;;
10216;SDS011;5152;59.674;16.838;2023-10-31T10:26:19;6.67;;;5.77;;
10216;SDS011;5152;59.674;16.838;2023-10-31T10:28:50;6.90;;;6.30;;
10216;SDS011;5152;59.674;16.838;2023-10-31T10:31:18;4.23;;;3.83;;
10216;SDS011;5152;59.674;16.838;2023-10-31T10:33:45;4.03;;;2.60;;
10216;SDS011;5152;59.674;16.838;2023-10-31T10:36:12;4.27;;;2.93;;
10216;SDS011;5152;59.674;16.838;2023-10-31T10:38:41;5.00;;;2.50;;
10216;SDS011;5152;59.674;16.838;2023-10-31T10:41:12;3.33;;;2.67;;
10216;SDS011;5152;59.674;16.838;2023-10-31T10:43:40;4.10;;;3.40;;
10216;SDS011;5152;59.674;16.838;2023-10-31T10:46:07;7.60;;;5.70;;
10216;SDS011;5152;59.674;16.838;2023-10-31T10:48:38;6.37;;;3.60;;
10216;SDS011;5152;59.674;16.838;2023-10-31T10:51:06;3.80;;;3.00;;
10216;SDS011;5152;59.674;16.838;2023-10-31T10:53:42;3.43;;;3.13;;
10216;SDS011;5152;59.674;16.838;2023-10-31T10:56:16;4.30;;;2.17;;
10216;SDS011;5152;59.674;16.838;2023-10-31T10:58:50;5.23;;;3.30;;
10216;SDS011;5152;59.674;16.838;2023-10-31T11:01:19;3.73;;;3.10;;
10216;SDS011;5152;59.674;16.838;2023-10-31T11:03:46;4.77;;;3.63;;
10216;SDS011;5152;59.674;16.838;2023-10-31T11:06:13;2.00;;;1.70;;
10216;SDS011;5152;59.674;16.838;2023-10-31T11:08:40;2.47;;;2.00;;
10216;SDS011;5152;59.674;16.838;2023-10-31T11:11:07;1.40;;;1.30;;
10216;SDS011;5152;59.674;16.838;2023-10-31T11:13:36;4.20;;;3.80;;
10216;SDS011;5152;59.674;16.838;2023-10-31T11:16:05;6.30;;;5.27;;
10216;SDS011;5152;59.674;16.838;2023-10-31T11:18:35;2.70;;;2.37;;
10216;SDS011;5152;59.674;16.838;2023-10-31T11:21:03;6.10;;;3.43;;
10216;SDS011;5152;59.674;16.838;2023-10-31T11:23:30;2.87;;;2.50;;
10216;SDS011;5152;59.674;16.838;2023-10-31T11:25:57;3.90;;;3.50;;
10216;SDS011;5152;59.674;16.838;2023-10-31T11:28:24;3.67;;;2.73;;
10216;SDS011;5152;59.674;16.838;2023-10-31T11:30:52;3.30;;;2.67;;
10216;SDS011;5152;59.674;16.838;2023-10-31T11:33:24;2.13;;;1.93;;
10216;SDS011;5152;59.674;16.838;2023-10-31T11:35:51;2.57;;;2.37;;
10216;SDS011;5152;59.674;16.838;2023-10-31T11:38:18;5.13;;;4.23;;
10216;SDS011;5152;59.674;16.838;2023-10-31T11:40:58;3.37;;;2.83;;
10216;SDS011;5152;59.674;16.838;2023-10-31T11:43:34;5.60;;;4.57;;
10216;SDS011;5152;59.674;16.838;2023-10-31T11:46:03;2.20;;;1.87;;
10216;SDS011;5152;59.674;16.838;2023-10-31T11:48:47;3.10;;;2.67;;
10216;SDS011;5152;59.674;16.838;2023-10-31T11:51:15;4.57;;;4.17;;
10216;SDS011;5152;59.674;16.838;2023-10-31T11:53:42;4.33;;;3.93;;
10216;SDS011;5152;59.674;16.838;2023-10-31T11:56:10;5.37;;;3.00;;
10216;SDS011;5152;59.674;16.838;2023-10-31T11:58:37;4.13;;;2.53;;
10216;SDS011;5152;59.674;16.838;2023-10-31T12:01:06;2.20;;;2.00;;
10216;SDS011;5152;59.674;16.838;2023-10-31T12:03:37;4.90;;;1.90;;
10216;SDS011;5152;59.674;16.838;2023-10-31T12:06:05;3.90;;;3.50;;
10216;SDS011;5152;59.674;16.838;2023-10-31T12:08:33;4.43;;;4.03;;
10216;SDS011;5152;59.674;16.838;2023-10-31T12:11:06;4.23;;;3.60;;
10216;SDS011;5152;59.674;16.838;2023-10-31T12:13:34;2.67;;;2.43;;
10216;SDS011;5152;59.674;16.838;2023-10-31T12:16:02;3.07;;;2.30;;
10216;SDS011;5152;59.674;16.838;2023-10-31T12:18:30;4.23;;;3.40;;
10216;SDS011;5152;59.674;16.838;2023-10-31T12:20:57;2.50;;;2.03;;
10216;SDS011;5152;59.674;16.838;2023-10-31T12:23:24;4.97;;;4.40;;
10216;SDS011;5152;59.674;16.838;2023-10-31T12:25:51;7.07;;;2.33;;
10216;SDS011;5152;59.674;16.838;2023-10-31T12:28:18;2.40;;;2.20;;
10216;SDS011;5152;59.674;16.838;2023-10-31T12:30:45;4.10;;;2.27;;
10216;SDS011;5152;59.674;16.838;2023-10-31T12:33:12;1.70;;;1.60;;
10216;SDS011;5152;59.674;16.838;2023-10-31T12:35:41;1.50;;;1.40;;
10216;SDS011;5152;59.674;16.838;2023-10-31T12:38:09;1.73;;;1.40;;
10216;SDS011;5152;59.674;16.838;2023-10-31T12:40:36;3.23;;;2.93;;
10216;SDS011;5152;59.674;16.838;2023-10-31T12:43:04;3.10;;;2.80;;
10216;SDS011;5152;59.674;16.838;2023-10-31T12:45:31;11.50;;;7.63;;
10216;SDS011;5152;59.674;16.838;2023-10-31T12:48:01;4.37;;;3.67;;
10216;SDS011;5152;59.674;16.838;2023-10-31T12:50:29;5.60;;;4.60;;
10216;SDS011;5152;59.674;16.838;2023-10-31T12:52:58;3.23;;;2.60;;
10216;SDS011;5152;59.674;16.838;2023-10-31T12:55:26;4.40;;;3.30;;
10216;SDS011;5152;59.674;16.838;2023-10-31T12:57:53;5.33;;;4.83;;
10216;SDS011;5152;59.674;16.838;2023-10-31T13:00:21;11.33;;;6.50;;
10216;SDS011;5152;59.674;16.838;2023-10-31T13:02:51;13.43;;;9.43;;
10216;SDS011;5152;59.674;16.838;2023-10-31T13:05:25;8.73;;;7.00;;
10216;SDS011;5152;59.674;16.838;2023-10-31T13:07:53;6.30;;;4.63;;
10216;SDS011;5152;59.674;16.838;2023-10-31T13:10:23;5.73;;;4.47;;
10216;SDS011;5152;59.674;16.838;2023-10-31T13:12:51;1.60;;;1.50;;
10216;SDS011;5152;59.674;16.838;2023-10-31T13:15:19;11.23;;;9.40;;
10216;SDS011;5152;59.674;16.838;2023-10-31T13:17:48;6.73;;;5.47;;
10216;SDS011;5152;59.674;16.838;2023-10-31T13:20:17;13.47;;;8.90;;
10216;SDS011;5152;59.674;16.838;2023-10-31T13:22:45;14.90;;;10.27;;
10216;SDS011;5152;59.674;16.838;2023-10-31T13:25:12;5.10;;;3.93;;
10216;SDS011;5152;59.674;16.838;2023-10-31T13:27:44;6.60;;;4.67;;
10216;SDS011;5152;59.674;16.838;2023-10-31T13:30:16;13.63;;;9.33;;
10216;SDS011;5152;59.674;16.838;2023-10-31T13:32:43;14.67;;;10.73;;
10216;SDS011;5152;59.674;16.838;2023-10-31T13:35:10;17.80;;;10.97;;
10216;SDS011;5152;59.674;16.838;2023-10-31T13:37:39;4.50;;;3.87;;
10216;SDS011;5152;59.674;16.838;2023-10-31T13:40:06;9.37;;;7.20;;
10216;SDS011;5152;59.674;16.838;2023-10-31T13:42:34;2.50;;;2.20;;
10216;SDS011;5152;59.674;16.838;2023-10-31T13:45:02;1.67;;;1.47;;
10216;SDS011;5152;59.674;16.838;2023-10-31T13:47:29;5.53;;;3.77;;
10216;SDS011;5152;59.674;16.838;2023-10-31T13:49:56;4.83;;;4.20;;
10216;SDS011;5152;59.674;16.838;2023-10-31T13:52:23;3.23;;;2.93;;
10216;SDS011;5152;59.674;16.838;2023-10-31T13:54:50;3.83;;;3.43;;
10216;SDS011;5152;59.674;16.838;2023-10-31T13:57:17;1.97;;;1.83;;
10216;SDS011;5152;59.674;16.838;2023-10-31T13:59:44;4.27;;;2.77;;
10216;SDS011;5152;59.674;16.838;2023-10-31T14:02:12;6.03;;;4.40;;
10216;SDS011;5152;59.674;16.838;2023-10-31T14:04:39;7.80;;;4.23;;
10216;SDS011;5152;59.674;16.838;2023-10-31T14:07:05;2.33;;;2.13;;
10216;SDS011;5152;59.674;16.838;2023-10-31T14:09:32;3.40;;;2.40;;
10216;SDS011;5152;59.674;16.838;2023-10-31T14:11:59;2.10;;;1.90;;
10216;SDS011;5152;59.674;16.838;2023-10-31T14:14:26;2.23;;;2.03;;
10216;SDS011;5152;59.674;16.838;2023-10-31T14:16:53;4.03;;;2.87;;
10216;SDS011;5152;59.674;16.838;2023-10-31T14:19:21;7.67;;;5.67;;
10216;SDS011;5152;59.674;16.838;2023-10-31T14:21:48;10.77;;;8.20;;
10216;SDS011;5152;59.674;16.838;2023-10-31T14:24:15;3.53;;;3.23;;
10216;SDS011;5152;59.674;16.838;2023-10-31T14:26:42;7.23;;;4.23;;
10216;SDS011;5152;59.674;16.838;2023-10-31T14:29:09;2.93;;;2.00;;
10216;SDS011;5152;59.674;16.838;2023-10-31T14:31:40;3.70;;;2.87;;
10216;SDS011;5152;59.674;16.838;2023-10-31T14:34:07;7.27;;;3.77;;
10216;SDS011;5152;59.674;16.838;2023-10-31T14:36:35;4.20;;;3.00;;
10216;SDS011;5152;59.674;16.838;2023-10-31T14:39:02;8.53;;;5.83;;
10216;SDS011;5152;59.674;16.838;2023-10-31T14:41:30;6.90;;;5.50;;
10216;SDS011;5152;59.674;16.838;2023-10-31T14:43:59;3.50;;;2.83;;
10216;SDS011;5152;59.674;16.838;2023-10-31T14:46:26;5.43;;;2.97;;
10216;SDS011;5152;59.674;16.838;2023-10-31T14:48:53;3.03;;;2.03;;